createdAt,value
2022-12-01T00:00:55.195Z,6.01
2022-12-01T00:03:57.768Z,6.13
2022-12-01T00:06:59.983Z,6.05
2022-12-01T00:10:21.477Z,5.98
2022-12-01T00:13:23.713Z,5.95
2022-12-01T00:16:26.326Z,5.68
2022-12-01T00:19:28.635Z,5.75
2022-12-01T00:22:31.939Z,5.56
2022-12-01T00:25:34.190Z,5.64
2022-12-01T00:28:36.673Z,5.45
2022-12-01T00:31:40.205Z,5.58
2022-12-01T00:34:42.768Z,5.36
2022-12-01T00:37:45.105Z,5.33
2022-12-01T00:40:47.635Z,5.46
2022-12-01T00:43:50.383Z,5.43
2022-12-01T00:46:53.104Z,5.35
2022-12-01T00:49:55.599Z,5.38
2022-12-01T00:52:58.068Z,5.34
2022-12-01T00:56:00.502Z,5.17
2022-12-01T00:59:03.089Z,5.17
2022-12-01T01:02:07.824Z,5.20
2022-12-01T01:05:10.519Z,5.25
2022-12-01T01:08:15.025Z,5.18
2022-12-01T01:11:17.900Z,5.18
2022-12-01T01:14:21.740Z,5.18
2022-12-01T01:17:24.255Z,5.13
2022-12-01T01:20:26.497Z,5.08
2022-12-01T01:23:29.448Z,4.96
2022-12-01T01:26:32.535Z,4.85
2022-12-01T01:29:36.047Z,4.78
2022-12-01T01:32:38.320Z,4.77
2022-12-01T01:35:41.332Z,4.89
2022-12-01T01:38:44.079Z,4.70
2022-12-01T01:41:46.640Z,4.67
2022-12-01T01:44:53.443Z,4.80
2022-12-01T01:47:59.482Z,4.63
2022-12-01T01:51:02.486Z,4.59
2022-12-01T01:54:17.072Z,4.68
2022-12-01T01:57:28.902Z,4.63
2022-12-01T02:00:31.544Z,4.55
2022-12-01T02:03:35.942Z,4.50
2022-12-01T02:06:38.350Z,4.33
2022-12-01T02:09:41.132Z,4.32
2022-12-01T02:12:58.323Z,4.39
2022-12-01T02:16:14.429Z,4.36
2022-12-01T02:19:31.708Z,4.36
2022-12-01T02:22:53.999Z,4.36
2022-12-01T02:26:27.466Z,4.33
2022-12-01T02:29:51.794Z,4.33
2022-12-01T02:33:11.854Z,4.29
2022-12-01T02:36:32.590Z,4.28
2022-12-01T02:39:48.709Z,4.13
2022-12-01T02:43:14.294Z,4.09
2022-12-01T02:46:26.280Z,4.26
2022-12-01T02:49:43.843Z,4.07
2022-12-01T02:52:46.342Z,4.21
2022-12-01T02:55:54.799Z,4.04
2022-12-01T02:58:57.567Z,4.04
2022-12-01T03:02:09.450Z,4.04
2022-12-01T03:05:37.671Z,4.18
2022-12-01T03:08:59.139Z,4.14
2022-12-01T03:12:04.234Z,4.13
2022-12-01T03:15:12.494Z,4.09
2022-12-01T03:18:35.990Z,4.11
2022-12-01T03:21:41.480Z,4.08
2022-12-01T03:24:48.399Z,4.08
2022-12-01T03:28:20.327Z,3.98
2022-12-01T03:31:24.896Z,3.90
2022-12-01T03:34:36.372Z,4.05
2022-12-01T03:38:14.667Z,3.92
2022-12-01T03:41:24.549Z,4.09
2022-12-01T03:44:32.166Z,4.10
2022-12-01T03:47:37.544Z,3.97
2022-12-01T03:50:55.790Z,4.07
2022-12-01T03:54:06.534Z,4.10
2022-12-01T03:57:13.412Z,4.00
2022-12-01T04:00:17.156Z,4.01
2022-12-01T04:03:23.074Z,4.14
2022-12-01T04:06:25.382Z,4.15
2022-12-01T04:09:30.228Z,4.16
2022-12-01T04:12:33.202Z,4.13
2022-12-01T04:15:35.736Z,4.02
2022-12-01T04:18:38.021Z,4.11
2022-12-01T04:21:40.684Z,4.02
2022-12-01T04:24:42.929Z,3.84
2022-12-01T04:27:45.643Z,3.89
2022-12-01T04:30:47.855Z,3.98
2022-12-01T04:33:50.433Z,3.98
2022-12-01T04:36:52.856Z,3.91
2022-12-01T04:39:55.446Z,3.80
2022-12-01T04:42:57.667Z,3.92
2022-12-01T04:46:00.245Z,3.92
2022-12-01T04:49:02.630Z,3.74
2022-12-01T04:52:05.409Z,3.74
2022-12-01T04:55:08.515Z,3.83
2022-12-01T04:58:11.131Z,3.71
2022-12-01T05:01:15.773Z,3.74
2022-12-01T05:04:18.344Z,3.69
2022-12-01T05:07:20.682Z,3.64
2022-12-01T05:10:23.229Z,3.66
2022-12-01T05:13:25.798Z,3.50
2022-12-01T05:16:32.312Z,3.68
2022-12-01T05:19:53.196Z,3.58
2022-12-01T05:23:07.110Z,3.71
2022-12-01T05:26:10.401Z,3.74
2022-12-01T05:29:13.582Z,3.52
2022-12-01T05:32:15.859Z,3.48
2022-12-01T05:35:18.441Z,3.62
2022-12-01T05:38:21.060Z,3.44
2022-12-01T05:41:23.660Z,3.41
2022-12-01T05:44:25.905Z,3.45
2022-12-01T05:47:28.566Z,3.44
2022-12-01T05:50:31.634Z,3.02
2022-12-01T05:53:34.486Z,3.23
2022-12-01T05:56:36.714Z,3.17
2022-12-01T05:59:39.282Z,3.25
2022-12-01T06:02:42.211Z,3.29
2022-12-01T06:05:44.890Z,3.13
2022-12-01T06:08:47.184Z,3.30
2022-12-01T06:11:52.553Z,3.30
2022-12-01T06:14:55.155Z,3.30
2022-12-01T06:18:00.737Z,3.30
2022-12-01T06:21:03.595Z,3.27
2022-12-01T06:24:06.517Z,3.11
2022-12-01T06:27:08.827Z,3.30
2022-12-01T06:30:11.637Z,3.28
2022-12-01T06:33:13.965Z,3.21
2022-12-01T06:36:16.570Z,3.22
2022-12-01T06:39:19.054Z,3.28
2022-12-01T06:42:21.587Z,3.30
2022-12-01T06:45:23.862Z,3.31
2022-12-01T06:48:26.488Z,3.31
2022-12-01T06:51:30.493Z,3.25
2022-12-01T06:54:33.592Z,3.45
2022-12-01T06:57:36.015Z,3.48
2022-12-01T07:00:38.874Z,3.40
2022-12-01T07:03:41.157Z,3.52
2022-12-01T07:06:46.535Z,3.36
2022-12-01T07:09:48.947Z,3.38
2022-12-01T07:12:51.674Z,3.44
2022-12-01T07:15:53.995Z,3.64
2022-12-01T07:18:56.554Z,3.56
2022-12-01T07:21:58.823Z,3.69
2022-12-01T07:25:01.373Z,3.81
2022-12-01T07:28:03.669Z,3.84
2022-12-01T07:31:08.864Z,3.81
2022-12-01T07:34:13.060Z,4.00
2022-12-01T07:37:15.608Z,4.10
2022-12-01T07:40:18.082Z,4.18
2022-12-01T07:43:20.697Z,4.28
2022-12-01T07:46:26.251Z,4.37
2022-12-01T07:49:28.919Z,4.39
2022-12-01T07:52:31.159Z,4.42
2022-12-01T07:55:36.290Z,4.64
2022-12-01T07:58:38.651Z,4.91
2022-12-01T08:01:44.523Z,4.95
2022-12-01T08:04:47.426Z,5.33
2022-12-01T08:07:49.800Z,5.56
2022-12-01T08:10:53.205Z,5.92
2022-12-01T08:13:55.890Z,6.35
2022-12-01T08:16:58.947Z,6.63
2022-12-01T08:20:01.558Z,6.70
2022-12-01T08:23:04.318Z,7.04
2022-12-01T08:26:12.508Z,7.47
2022-12-01T08:29:19.901Z,7.80
2022-12-01T08:32:22.842Z,8.21
2022-12-01T08:35:25.858Z,8.51
2022-12-01T08:38:28.128Z,8.85
2022-12-01T08:41:31.820Z,9.37
2022-12-01T08:44:34.125Z,9.91
2022-12-01T08:47:36.882Z,10.37
2022-12-01T08:50:39.489Z,10.98
2022-12-01T08:53:45.761Z,11.59
2022-12-01T08:56:49.550Z,12.18
2022-12-01T08:59:52.219Z,12.58
2022-12-01T09:02:57.341Z,12.83
2022-12-01T09:06:06.743Z,12.86
2022-12-01T09:09:10.861Z,13.03
2022-12-01T09:12:13.688Z,13.38
2022-12-01T09:15:16.168Z,12.71
2022-12-01T09:18:18.791Z,12.63
2022-12-01T09:21:24.718Z,13.09
2022-12-01T09:24:27.721Z,13.21
2022-12-01T09:27:29.999Z,13.57
2022-12-01T09:30:35.125Z,14.19
2022-12-01T09:33:38.470Z,14.74
2022-12-01T09:36:41.537Z,15.43
2022-12-01T09:39:43.840Z,15.37
2022-12-01T09:42:47.739Z,15.33
2022-12-01T09:46:07.654Z,15.18
2022-12-01T09:49:19.300Z,15.38
2022-12-01T09:52:24.330Z,15.87
2022-12-01T09:55:30.329Z,15.92
2022-12-01T09:58:33.377Z,15.70
2022-12-01T10:01:38.645Z,15.25
2022-12-01T10:04:46.799Z,15.04
2022-12-01T10:07:56.430Z,15.34
2022-12-01T10:11:08.408Z,14.96
2022-12-01T10:14:20.447Z,15.21
2022-12-01T10:18:04.913Z,14.84
2022-12-01T10:21:10.119Z,14.64
2022-12-01T10:24:31.116Z,14.10
2022-12-01T10:27:52.492Z,13.82
2022-12-01T10:31:04.566Z,14.14
2022-12-01T10:34:23.123Z,14.77
2022-12-01T10:37:28.824Z,15.30
2022-12-01T10:40:35.246Z,15.95
2022-12-01T10:43:40.466Z,16.97
2022-12-01T10:46:52.517Z,18.52
2022-12-01T10:49:56.324Z,19.01
2022-12-01T10:52:58.757Z,20.54
2022-12-01T10:56:04.266Z,21.57
2022-12-01T10:59:44.248Z,22.15
2022-12-01T11:02:47.925Z,22.11
2022-12-01T11:05:54.506Z,22.11
2022-12-01T11:09:05.435Z,21.96
2022-12-01T11:12:16.637Z,22.04
2022-12-01T11:15:22.726Z,22.26
2022-12-01T11:18:27.906Z,21.80
2022-12-01T11:21:31.928Z,21.63
2022-12-01T11:25:00.652Z,21.69
2022-12-01T11:28:04.672Z,20.44
2022-12-01T11:31:11.076Z,19.43
2022-12-01T11:34:24.676Z,17.81
2022-12-01T11:37:50.493Z,16.70
2022-12-01T11:41:03.163Z,15.83
2022-12-01T11:44:43.063Z,14.97
2022-12-01T11:48:06.247Z,15.09
2022-12-01T11:51:24.362Z,15.45
2022-12-01T11:54:27.262Z,16.43
2022-12-01T11:57:34.885Z,16.84
2022-12-01T12:00:51.120Z,16.72
2022-12-01T12:04:25.304Z,16.64
2022-12-01T12:07:55.506Z,16.11
2022-12-01T12:11:26.427Z,15.90
2022-12-01T12:14:50.835Z,15.71
2022-12-01T12:17:59.814Z,15.66
2022-12-01T12:21:38.930Z,15.27
2022-12-01T12:25:24.220Z,15.00
2022-12-01T12:29:07.155Z,14.94
2022-12-01T12:32:34.972Z,14.96
2022-12-01T12:36:05.372Z,15.13
2022-12-01T12:39:27.401Z,15.47
2022-12-01T12:42:59.741Z,15.77
2022-12-01T12:46:08.273Z,15.83
2022-12-01T12:49:27.049Z,15.73
2022-12-01T12:52:42.620Z,15.59
2022-12-01T12:55:54.958Z,15.26
2022-12-01T12:59:01.914Z,14.67
2022-12-01T13:02:14.976Z,14.32
2022-12-01T13:05:43.776Z,13.87
2022-12-01T13:08:53.432Z,13.60
2022-12-01T13:12:15.892Z,13.25
2022-12-01T13:15:21.516Z,12.27
2022-12-01T13:18:46.946Z,12.30
2022-12-01T13:21:52.223Z,12.12
2022-12-01T13:24:55.154Z,11.95
2022-12-01T13:28:10.277Z,11.66
2022-12-01T13:31:15.993Z,11.38
2022-12-01T13:34:29.215Z,11.05
2022-12-01T13:37:35.678Z,10.88
2022-12-01T13:40:39.235Z,10.58
2022-12-01T13:44:03.883Z,10.35
2022-12-01T13:47:33.077Z,10.51
2022-12-01T13:50:46.044Z,10.27
2022-12-01T13:54:05.629Z,10.19
2022-12-01T13:57:14.003Z,10.14
2022-12-01T14:00:41.460Z,9.80
2022-12-01T14:04:26.330Z,9.78
2022-12-01T14:07:39.652Z,9.47
2022-12-01T14:10:57.281Z,9.56
2022-12-01T14:14:12.258Z,8.79
2022-12-01T14:17:41.804Z,9.36
2022-12-01T14:20:48.485Z,9.18
2022-12-01T14:24:06.269Z,8.99
2022-12-01T14:27:12.170Z,9.08
2022-12-01T14:30:37.586Z,8.54
2022-12-01T14:33:40.188Z,8.92
2022-12-01T14:37:11.661Z,8.81
2022-12-01T14:40:19.495Z,8.62
2022-12-01T14:43:40.594Z,8.21
2022-12-01T14:46:58.014Z,7.91
2022-12-01T14:50:15.337Z,8.30
2022-12-01T14:53:25.897Z,8.37
2022-12-01T14:56:30.003Z,8.30
2022-12-01T14:59:32.843Z,8.18
2022-12-01T15:02:43.554Z,8.12
2022-12-01T15:05:46.253Z,8.08
2022-12-01T15:09:34.598Z,8.01
2022-12-01T15:12:37.861Z,7.82
2022-12-01T15:15:53.565Z,7.76
2022-12-01T15:18:58.405Z,7.61
2022-12-01T15:22:06.042Z,7.49
2022-12-01T15:25:14.900Z,7.73
2022-12-01T15:28:18.597Z,7.61
2022-12-01T15:31:21.319Z,7.58
2022-12-01T15:34:48.659Z,7.50
2022-12-01T15:37:52.583Z,7.47
2022-12-01T15:41:28.057Z,7.29
2022-12-01T15:44:42.393Z,7.38
2022-12-01T15:47:47.252Z,7.35
2022-12-01T15:51:01.973Z,7.35
2022-12-01T15:54:04.657Z,7.18
2022-12-01T15:57:09.079Z,7.26
2022-12-01T16:00:20.726Z,7.12
2022-12-01T16:03:23.579Z,7.22
2022-12-01T16:06:30.126Z,7.04
2022-12-01T16:09:41.126Z,6.99
2022-12-01T16:12:43.464Z,7.13
2022-12-01T16:15:45.980Z,7.11
2022-12-01T16:18:57.887Z,7.08
2022-12-01T16:22:13.595Z,6.90
2022-12-01T16:25:28.013Z,7.02
2022-12-01T16:28:36.338Z,6.99
2022-12-01T16:31:58.572Z,6.99
2022-12-01T16:35:04.232Z,6.97
2022-12-01T16:38:20.602Z,6.96
2022-12-01T16:41:38.361Z,6.81
2022-12-01T16:44:42.071Z,6.85
2022-12-01T16:47:46.896Z,6.88
2022-12-01T16:50:50.228Z,6.89
2022-12-01T16:53:52.883Z,6.71
2022-12-01T16:56:55.136Z,6.84
2022-12-01T16:59:57.832Z,6.77
2022-12-01T17:03:00.823Z,6.75
2022-12-01T17:06:04.701Z,6.75
2022-12-01T17:09:07.100Z,6.63
2022-12-01T17:12:09.875Z,6.76
2022-12-01T17:15:12.304Z,6.61
2022-12-01T17:18:16.422Z,6.74
2022-12-01T17:21:19.115Z,6.73
2022-12-01T17:24:21.801Z,6.54
2022-12-01T17:27:25.245Z,6.70
2022-12-01T17:30:27.921Z,6.57
2022-12-01T17:33:30.391Z,6.56
2022-12-01T17:36:32.951Z,6.50
2022-12-01T17:39:35.318Z,6.63
2022-12-01T17:42:37.946Z,6.46
2022-12-01T17:45:42.085Z,6.61
2022-12-01T17:48:46.402Z,6.50
2022-12-01T17:51:48.738Z,6.53
2022-12-01T17:54:51.710Z,6.50
2022-12-01T17:57:54.182Z,6.45
2022-12-01T18:00:56.719Z,6.35
2022-12-01T18:03:59.331Z,6.08
2022-12-01T18:07:01.666Z,6.27
2022-12-01T18:10:04.617Z,6.36
2022-12-01T18:13:07.208Z,6.30
2022-12-01T18:16:20.962Z,6.12
2022-12-01T18:19:23.388Z,6.08
2022-12-01T18:22:25.958Z,6.21
2022-12-01T18:25:28.233Z,6.06
2022-12-01T18:28:31.091Z,6.11
2022-12-01T18:31:34.603Z,6.13
2022-12-01T18:34:37.228Z,6.13
2022-12-01T18:37:40.398Z,6.14
2022-12-01T18:40:42.976Z,5.98
2022-12-01T18:43:45.740Z,6.09
2022-12-01T18:46:48.349Z,6.05
2022-12-01T18:49:50.631Z,6.04
2022-12-01T18:52:53.195Z,6.05
2022-12-01T18:55:55.453Z,6.06
2022-12-01T18:59:01.553Z,5.89
2022-12-01T19:02:04.382Z,6.06
2022-12-01T19:05:07.297Z,6.03
2022-12-01T19:08:09.755Z,6.05
2022-12-01T19:11:12.686Z,5.90
2022-12-01T19:14:18.490Z,6.06
2022-12-01T19:17:21.567Z,6.05
2022-12-01T19:20:24.056Z,5.97
2022-12-01T19:23:26.785Z,6.01
2022-12-01T19:26:29.174Z,5.87
2022-12-01T19:29:31.731Z,5.99
2022-12-01T19:32:34.452Z,5.81
2022-12-01T19:35:37.040Z,5.88
2022-12-01T19:38:39.976Z,5.78
2022-12-01T19:41:42.645Z,5.75
2022-12-01T19:44:45.252Z,5.91
2022-12-01T19:47:48.934Z,5.87
2022-12-01T19:50:51.109Z,5.85
2022-12-01T19:53:54.566Z,5.84
2022-12-01T19:56:57.007Z,5.82
2022-12-01T20:00:00.004Z,5.67
2022-12-01T20:03:02.386Z,5.80
2022-12-01T20:06:08.350Z,5.79
2022-12-01T20:09:10.939Z,5.73
2022-12-01T20:12:14.625Z,5.76
2022-12-01T20:15:17.227Z,5.51
2022-12-01T20:18:19.941Z,5.57
2022-12-01T20:21:25.565Z,5.72
2022-12-01T20:24:28.130Z,5.69
2022-12-01T20:27:30.543Z,5.43
2022-12-01T20:30:33.085Z,5.46
2022-12-01T20:33:35.458Z,5.61
2022-12-01T20:36:39.137Z,5.59
2022-12-01T20:39:42.870Z,5.38
2022-12-01T20:42:45.412Z,5.50
2022-12-01T20:45:47.772Z,5.36
2022-12-01T20:48:50.443Z,5.24
2022-12-01T20:51:52.693Z,5.20
2022-12-01T20:54:55.448Z,5.23
2022-12-01T20:57:57.665Z,5.26
2022-12-01T21:01:01.182Z,5.04
2022-12-01T21:04:03.679Z,5.17
2022-12-01T21:07:06.263Z,5.15
2022-12-01T21:10:08.807Z,4.94
2022-12-01T21:13:44.646Z,5.08
2022-12-01T21:16:49.122Z,4.89
2022-12-01T21:20:18.074Z,4.89
2022-12-01T21:23:21.327Z,5.02
2022-12-01T21:26:23.871Z,4.91
2022-12-01T21:29:40.179Z,4.97
2022-12-01T21:32:44.499Z,5.04
2022-12-01T21:35:50.073Z,4.97
2022-12-01T21:38:57.384Z,4.95
2022-12-01T21:42:06.995Z,4.90
2022-12-01T21:45:31.155Z,4.88
2022-12-01T21:48:36.369Z,5.05
2022-12-01T21:51:38.927Z,4.93
2022-12-01T21:54:41.180Z,5.15
2022-12-01T21:57:48.667Z,5.10
2022-12-01T22:00:53.808Z,4.90
2022-12-01T22:04:02.026Z,4.86
2022-12-01T22:07:05.317Z,4.91
2022-12-01T22:10:46.824Z,4.91
2022-12-01T22:13:49.076Z,4.85
2022-12-01T22:16:58.175Z,4.95
2022-12-01T22:20:02.411Z,4.95
2022-12-01T22:23:13.031Z,4.91
2022-12-01T22:26:20.552Z,4.91
2022-12-01T22:29:31.670Z,4.92
2022-12-01T22:32:38.710Z,4.88
2022-12-01T22:35:46.306Z,4.66
2022-12-01T22:38:49.880Z,4.90
2022-12-01T22:41:58.438Z,4.89
2022-12-01T22:45:26.378Z,4.88
2022-12-01T22:48:40.492Z,4.88
2022-12-01T22:51:49.638Z,4.83
2022-12-01T22:54:52.578Z,4.85
2022-12-01T22:57:55.256Z,4.61
2022-12-01T23:01:03.842Z,4.83
2022-12-01T23:04:20.520Z,4.68
2022-12-01T23:07:32.016Z,4.67
2022-12-01T23:10:35.245Z,4.66
2022-12-01T23:13:37.838Z,4.83
2022-12-01T23:16:40.563Z,4.80
2022-12-01T23:19:43.289Z,4.81
2022-12-01T23:22:46.365Z,4.64
2022-12-01T23:25:50.527Z,4.78
2022-12-01T23:28:52.810Z,4.62
2022-12-01T23:31:55.408Z,4.77
2022-12-01T23:35:00.364Z,4.58
2022-12-01T23:38:03.240Z,4.73
2022-12-01T23:41:10.554Z,4.71
2022-12-01T23:44:21.310Z,4.56
2022-12-01T23:47:26.775Z,4.74
2022-12-01T23:50:30.439Z,4.71
2022-12-01T23:53:33.602Z,4.57
2022-12-01T23:56:39.272Z,4.73
2022-12-01T23:59:42.183Z,4.75
